Time;durP1;ratioP1;P1;durP2;ratioP2;P2;SDS_P1;SDS_P2;PMS_P1;PMS_P2;Temp;Humidity;BMP_temperature;BMP_pressure;BME280_temperature;BME280_humidity;BME280_pressure;Samples;Min_cycle;Max_cycle;Signal;HPM_P1;HPM_P2
2023/04/16 00:00:48;;;;;;;11.37;5.70;;;9.70;99.90;;;;;;5052527;28;20271;-69
2023/04/16 00:03:14;;;;;;;8.60;4.70;;;9.70;99.90;;;;;;5052375;28;20175;-69
2023/04/16 00:05:39;;;;;;;7.27;5.00;;;9.70;99.90;;;;;;5052272;28;20195;-70
2023/04/16 00:08:05;;;;;;;5.90;3.57;;;9.70;99.90;;;;;;5051915;28;20478;-70
2023/04/16 00:10:31;;;;;;;10.37;3.97;;;9.70;99.90;;;;;;5051013;28;20174;-70
2023/04/16 00:12:56;;;;;;;8.53;5.13;;;9.70;99.90;;;;;;5050892;28;20194;-70
2023/04/16 00:15:22;;;;;;;8.80;6.47;;;9.60;99.90;;;;;;5052121;28;20199;-70
2023/04/16 00:17:47;;;;;;;8.50;5.03;;;9.70;99.90;;;;;;5050621;28;20265;-70
2023/04/16 00:20:13;;;;;;;7.80;4.90;;;9.70;99.90;;;;;;5052093;28;20203;-70
2023/04/16 00:22:39;;;;;;;12.60;7.03;;;9.70;99.90;;;;;;5051050;28;20171;-70
2023/04/16 00:25:05;;;;;;;12.50;5.90;;;9.70;99.90;;;;;;5052014;28;20182;-70
2023/04/16 00:27:30;;;;;;;5.57;4.83;;;9.70;99.90;;;;;;5051766;28;20575;-70
2023/04/16 00:29:56;;;;;;;7.50;5.00;;;9.70;99.90;;;;;;5052020;28;20402;-70
2023/04/16 00:32:21;;;;;;;7.63;5.00;;;9.70;99.90;;;;;;5052047;28;20170;-70
2023/04/16 00:34:47;;;;;;;6.77;4.63;;;9.70;99.90;;;;;;5051109;28;20201;-70
2023/04/16 00:37:12;;;;;;;10.87;5.63;;;9.70;99.90;;;;;;5051046;28;20194;-70
2023/04/16 00:39:38;;;;;;;8.47;6.30;;;9.70;99.90;;;;;;5051661;28;20174;-70
2023/04/16 00:42:03;;;;;;;23.60;7.23;;;9.70;99.90;;;;;;5051744;28;20167;-70
2023/04/16 00:44:29;;;;;;;11.33;6.80;;;9.70;99.90;;;;;;5051746;28;20194;-70
2023/04/16 00:46:56;;;;;;;9.00;5.93;;;9.70;99.90;;;;;;5051696;28;20297;-70
2023/04/16 00:49:23;;;;;;;10.60;6.20;;;9.70;99.90;;;;;;5050545;28;20175;-70
2023/04/16 00:51:48;;;;;;;16.23;6.90;;;9.70;99.90;;;;;;5051732;28;20420;-70
2023/04/16 00:54:14;;;;;;;13.00;7.47;;;9.70;99.90;;;;;;5051677;28;20807;-70
2023/04/16 00:56:41;;;;;;;6.80;6.03;;;9.70;99.90;;;;;;5051692;28;20613;-70
2023/04/16 00:59:07;;;;;;;8.30;5.60;;;9.70;99.90;;;;;;5051517;28;20254;-70
2023/04/16 01:01:32;;;;;;;7.80;5.77;;;9.70;99.90;;;;;;5051656;28;20452;-70
2023/04/16 01:03:58;;;;;;;9.33;4.97;;;9.70;99.90;;;;;;5051633;28;20429;-70
2023/04/16 01:06:24;;;;;;;5.50;4.57;;;9.70;99.90;;;;;;5051606;28;20197;-70
2023/04/16 01:08:50;;;;;;;7.60;4.70;;;9.80;99.90;;;;;;5051384;28;20167;-70
2023/04/16 01:11:15;;;;;;;7.77;5.47;;;9.70;99.90;;;;;;5051679;28;20418;-70
2023/04/16 01:13:41;;;;;;;7.80;5.10;;;9.80;99.90;;;;;;5050123;28;20191;-70
2023/04/16 01:16:08;;;;;;;11.27;6.93;;;9.80;99.90;;;;;;5051467;28;20198;-70
2023/04/16 01:18:34;;;;;;;7.63;5.93;;;9.80;99.90;;;;;;5051082;28;20535;-70
2023/04/16 01:21:00;;;;;;;8.90;5.97;;;9.80;99.90;;;;;;5051434;28;20410;-70
2023/04/16 01:23:25;;;;;;;12.60;6.27;;;9.70;99.90;;;;;;5051699;28;20958;-70
2023/04/16 01:25:51;;;;;;;13.87;7.13;;;9.70;99.90;;;;;;5051509;28;20198;-70
2023/04/16 01:28:17;;;;;;;13.77;5.60;;;9.80;99.90;;;;;;5051199;28;20659;-70
2023/04/16 01:30:43;;;;;;;16.93;5.70;;;9.70;99.90;;;;;;5050393;28;20175;-70
2023/04/16 01:33:10;;;;;;;7.70;5.63;;;9.70;99.90;;;;;;5051227;28;20731;-70
2023/04/16 01:35:36;;;;;;;8.50;5.50;;;9.70;99.90;;;;;;5051073;28;20561;-70
2023/04/16 01:38:02;;;;;;;9.67;4.50;;;9.70;99.90;;;;;;5051082;28;20389;-70
2023/04/16 01:40:28;;;;;;;7.33;5.47;;;9.70;99.90;;;;;;5051217;28;20398;-70
2023/04/16 01:42:53;;;;;;;5.23;4.70;;;9.70;99.90;;;;;;5051175;28;20486;-70
2023/04/16 01:45:19;;;;;;;6.87;4.90;;;9.70;99.90;;;;;;5052167;28;20186;-70
2023/04/16 01:47:45;;;;;;;7.47;4.80;;;9.70;99.90;;;;;;5053566;28;20640;-70
2023/04/16 01:50:11;;;;;;;9.40;6.10;;;9.70;99.90;;;;;;5054945;28;20455;-70
2023/04/16 01:52:36;;;;;;;7.90;4.93;;;9.60;99.90;;;;;;5054738;28;20441;-70
2023/04/16 01:55:02;;;;;;;10.20;6.10;;;9.60;99.90;;;;;;5054842;28;20179;-70
2023/04/16 01:57:28;;;;;;;6.50;5.63;;;9.60;99.90;;;;;;5054375;28;20190;-70
2023/04/16 01:59:53;;;;;;;9.93;5.83;;;9.60;99.90;;;;;;5054602;28;20405;-70
2023/04/16 02:02:19;;;;;;;9.90;6.10;;;9.60;99.90;;;;;;5054731;28;20166;-70
2023/04/16 02:04:45;;;;;;;11.83;6.23;;;9.60;99.90;;;;;;5054516;28;20183;-70
2023/04/16 02:07:11;;;;;;;10.47;5.73;;;9.60;99.90;;;;;;5054538;28;20216;-70
2023/04/16 02:09:38;;;;;;;12.00;6.50;;;9.60;99.90;;;;;;5054636;28;20401;-70
2023/04/16 02:12:04;;;;;;;6.97;5.63;;;9.60;99.90;;;;;;5054338;28;20437;-70
2023/04/16 02:14:31;;;;;;;8.87;5.73;;;9.70;99.90;;;;;;5054436;28;20437;-70
2023/04/16 02:16:56;;;;;;;12.70;5.60;;;9.60;99.90;;;;;;5053658;28;20456;-70
2023/04/16 02:19:22;;;;;;;9.37;5.80;;;9.60;99.90;;;;;;5054329;28;20907;-70
2023/04/16 02:21:50;;;;;;;8.50;6.20;;;9.70;99.90;;;;;;5053075;28;20175;-70
2023/04/16 02:24:15;;;;;;;7.20;5.53;;;9.70;99.90;;;;;;5054294;28;20320;-70
2023/04/16 02:26:41;;;;;;;10.67;6.30;;;9.70;99.90;;;;;;5054342;28;20492;-70
2023/04/16 02:29:06;;;;;;;8.03;6.07;;;9.70;99.90;;;;;;5053989;28;20167;-70
2023/04/16 02:31:32;;;;;;;11.07;6.60;;;9.70;99.90;;;;;;5054246;28;20190;-70
2023/04/16 02:33:57;;;;;;;10.40;6.70;;;9.70;99.90;;;;;;5052680;28;20181;-70
2023/04/16 02:36:23;;;;;;;10.43;7.90;;;9.70;99.90;;;;;;5053803;28;20222;-70
2023/04/16 02:38:48;;;;;;;9.90;7.43;;;9.70;99.90;;;;;;5052290;28;20595;-70
2023/04/16 02:41:14;;;;;;;15.27;8.60;;;9.70;99.90;;;;;;5054008;28;20721;-70
2023/04/16 02:43:40;;;;;;;12.90;7.10;;;9.70;99.90;;;;;;5053656;28;20182;-70
2023/04/16 02:46:05;;;;;;;13.43;9.50;;;9.70;99.90;;;;;;5053947;28;20202;-70
2023/04/16 02:48:31;;;;;;;11.30;7.13;;;9.70;99.90;;;;;;5053579;28;20173;-71
2023/04/16 02:50:57;;;;;;;11.57;7.00;;;9.70;99.90;;;;;;5053888;28;20258;-70
2023/04/16 02:53:22;;;;;;;12.23;7.00;;;9.70;99.90;;;;;;5053671;28;20437;-71
2023/04/16 02:55:52;;;;;;;12.43;7.00;;;9.60;99.90;;;;;;5053633;28;20227;-70
2023/04/16 02:58:18;;;;;;;11.80;6.80;;;9.60;99.90;;;;;;5052768;28;20209;-70
2023/04/16 03:00:44;;;;;;;11.93;7.07;;;9.60;99.90;;;;;;5053655;28;20401;-70
2023/04/16 03:03:10;;;;;;;12.53;7.03;;;9.60;99.90;;;;;;5053773;28;20744;-71
2023/04/16 03:05:35;;;;;;;8.47;6.97;;;9.60;99.90;;;;;;5053479;28;20191;-70
2023/04/16 03:08:02;;;;;;;10.10;7.17;;;9.60;99.90;;;;;;5051906;28;20672;-69
2023/04/16 03:10:27;;;;;;;8.53;6.57;;;9.60;99.90;;;;;;5053465;28;20163;-70
2023/04/16 03:12:53;;;;;;;12.50;6.67;;;9.60;99.90;;;;;;5053165;28;20432;-70
2023/04/16 03:15:18;;;;;;;11.60;7.13;;;9.60;99.90;;;;;;5052972;28;20190;-70
2023/04/16 03:17:44;;;;;;;9.27;6.30;;;9.60;99.90;;;;;;5053016;28;20174;-71
2023/04/16 03:20:10;;;;;;;10.10;6.33;;;9.60;99.90;;;;;;5053227;28;20159;-71
2023/04/16 03:22:36;;;;;;;10.97;6.87;;;9.60;99.90;;;;;;5053264;28;20699;-71
2023/04/16 03:25:01;;;;;;;12.77;6.60;;;9.60;99.90;;;;;;5053045;28;20187;-70
2023/04/16 03:27:27;;;;;;;14.03;7.97;;;9.60;99.90;;;;;;5052863;28;20401;-70
2023/04/16 03:29:52;;;;;;;13.97;8.73;;;9.60;99.90;;;;;;5052994;28;20171;-70
2023/04/16 03:32:18;;;;;;;11.10;7.30;;;9.50;99.90;;;;;;5053086;28;20229;-70
2023/04/16 03:34:44;;;;;;;18.60;8.90;;;9.50;99.90;;;;;;5052801;28;20733;-71
2023/04/16 03:37:10;;;;;;;17.40;9.17;;;9.50;99.90;;;;;;5052664;28;20186;-69
2023/04/16 03:39:36;;;;;;;13.80;10.40;;;9.50;99.90;;;;;;5052895;28;20497;-71
2023/04/16 03:42:02;;;;;;;23.27;9.53;;;9.50;99.90;;;;;;5052782;28;20499;-70
2023/04/16 03:44:28;;;;;;;14.20;8.57;;;9.60;99.90;;;;;;5052542;28;20217;-71
2023/04/16 03:46:54;;;;;;;14.27;8.87;;;9.50;99.90;;;;;;5052487;28;20398;-71
2023/04/16 03:49:19;;;;;;;12.23;8.00;;;9.50;99.90;;;;;;5052685;28;20747;-70
2023/04/16 03:51:45;;;;;;;14.77;8.83;;;9.50;99.90;;;;;;5052729;28;20177;-70
2023/04/16 03:54:11;;;;;;;14.47;8.53;;;9.50;99.90;;;;;;5051347;28;20667;-70
2023/04/16 03:56:38;;;;;;;9.87;6.87;;;9.60;99.90;;;;;;5052465;28;20194;-71
2023/04/16 03:59:04;;;;;;;12.63;8.03;;;9.60;99.90;;;;;;5052250;28;20177;-70
2023/04/16 04:01:29;;;;;;;12.27;7.60;;;9.60;99.90;;;;;;5052414;28;20405;-71
2023/04/16 04:03:55;;;;;;;13.83;7.67;;;9.60;99.90;;;;;;5052424;28;20171;-70
2023/04/16 04:06:20;;;;;;;11.37;8.40;;;9.60;99.90;;;;;;5052422;28;20640;-70
2023/04/16 04:08:46;;;;;;;8.97;7.07;;;9.60;99.90;;;;;;5051369;28;20670;-70
2023/04/16 04:11:11;;;;;;;14.63;8.00;;;9.60;99.90;;;;;;5052112;28;20571;-70
2023/04/16 04:13:37;;;;;;;10.53;7.27;;;9.60;99.90;;;;;;5052218;28;20218;-70
2023/04/16 04:16:03;;;;;;;11.97;7.60;;;9.60;99.90;;;;;;5050770;28;20195;-71
2023/04/16 04:18:29;;;;;;;14.70;8.23;;;9.60;99.90;;;;;;5050724;28;20179;-70
2023/04/16 04:20:54;;;;;;;14.67;8.00;;;9.70;99.90;;;;;;5052139;28;20401;-70
2023/04/16 04:23:20;;;;;;;13.40;8.30;;;9.70;99.90;;;;;;5052139;28;20247;-70
2023/04/16 04:25:46;;;;;;;19.50;8.03;;;9.70;99.90;;;;;;5051900;28;20245;-71
2023/04/16 04:28:11;;;;;;;11.23;7.40;;;9.70;99.90;;;;;;5051954;28;20659;-71
2023/04/16 04:30:37;;;;;;;10.83;7.50;;;9.70;99.90;;;;;;5051903;28;20190;-70
2023/04/16 04:33:03;;;;;;;11.37;7.60;;;9.60;99.90;;;;;;5052121;28;20178;-70
2023/04/16 04:35:28;;;;;;;12.80;7.97;;;9.70;99.90;;;;;;5051532;28;20605;-71
2023/04/16 04:37:54;;;;;;;13.67;7.57;;;9.60;99.90;;;;;;5051614;28;20401;-70
2023/04/16 04:40:19;;;;;;;18.00;7.70;;;9.60;99.90;;;;;;5051884;28;20225;-72
2023/04/16 04:42:45;;;;;;;13.57;8.20;;;9.60;99.90;;;;;;5051745;28;20881;-71
2023/04/16 04:45:10;;;;;;;13.10;8.17;;;9.60;99.90;;;;;;5051720;28;20186;-71
2023/04/16 04:47:36;;;;;;;12.17;7.77;;;9.70;99.90;;;;;;5051618;28;20167;-70
2023/04/16 04:50:02;;;;;;;14.90;9.23;;;9.70;99.90;;;;;;5050769;28;20257;-70
2023/04/16 04:52:27;;;;;;;10.83;7.10;;;9.70;99.90;;;;;;5051768;28;20241;-70
2023/04/16 04:54:53;;;;;;;12.63;7.67;;;9.70;99.90;;;;;;5050410;28;20187;-69
2023/04/16 04:57:18;;;;;;;14.20;7.77;;;9.80;99.90;;;;;;5051251;28;20209;-70
2023/04/16 04:59:44;;;;;;;12.07;7.70;;;9.70;99.90;;;;;;5051718;28;20163;-70
2023/04/16 05:02:10;;;;;;;16.60;9.70;;;9.80;99.90;;;;;;5051686;28;20170;-69
2023/04/16 05:04:35;;;;;;;13.40;7.30;;;9.80;99.90;;;;;;5051656;28;20845;-70
2023/04/16 05:07:01;;;;;;;14.30;7.60;;;9.80;99.90;;;;;;5050130;28;20177;-70
2023/04/16 05:09:27;;;;;;;16.13;8.50;;;9.80;99.90;;;;;;5051693;28;20179;-70
2023/04/16 05:11:52;;;;;;;14.70;8.33;;;9.80;99.90;;;;;;5051672;28;20166;-71
2023/04/16 05:14:18;;;;;;;16.23;8.20;;;9.80;99.90;;;;;;5051374;28;20214;-70
2023/04/16 05:16:43;;;;;;;11.20;8.00;;;9.90;99.90;;;;;;5051581;28;20190;-71
2023/04/16 05:19:09;;;;;;;15.20;7.47;;;9.80;99.90;;;;;;5051510;28;20163;-70
2023/04/16 05:21:34;;;;;;;12.97;7.73;;;9.80;99.90;;;;;;5052933;28;20170;-69
2023/04/16 05:24:00;;;;;;;16.70;8.67;;;9.80;99.90;;;;;;5055270;28;20194;-70
2023/04/16 05:26:25;;;;;;;12.53;8.40;;;9.90;99.90;;;;;;5055553;28;20241;-69
2023/04/16 05:28:51;;;;;;;18.30;8.40;;;9.90;99.90;;;;;;5055042;28;20167;-70
2023/04/16 05:31:16;;;;;;;15.87;9.13;;;9.90;99.90;;;;;;5055424;28;20250;-71
2023/04/16 05:33:42;;;;;;;12.27;8.20;;;9.90;99.90;;;;;;5055347;28;20167;-72
2023/04/16 05:36:07;;;;;;;15.23;8.83;;;9.90;99.90;;;;;;5055195;28;20274;-71
2023/04/16 05:38:33;;;;;;;13.20;7.70;;;9.90;99.90;;;;;;5054919;28;20229;-70
2023/04/16 05:40:58;;;;;;;10.03;7.43;;;9.90;99.90;;;;;;5054012;28;20194;-70
2023/04/16 05:43:24;;;;;;;14.87;8.33;;;10.00;99.90;;;;;;5055035;28;20170;-70
2023/04/16 05:45:50;;;;;;;10.70;7.50;;;10.00;99.90;;;;;;5055038;28;20248;-70
2023/04/16 05:48:15;;;;;;;11.53;7.67;;;10.00;99.90;;;;;;5054784;28;20197;-70
2023/04/16 05:50:41;;;;;;;15.80;8.30;;;10.00;99.90;;;;;;5055112;28;20166;-70
2023/04/16 05:53:07;;;;;;;19.57;8.63;;;10.10;99.90;;;;;;5054913;28;20159;-70
2023/04/16 05:55:34;;;;;;;13.63;7.37;;;10.10;99.90;;;;;;5055006;28;20291;-70
2023/04/16 05:58:00;;;;;;;15.37;9.33;;;10.10;99.90;;;;;;5054617;28;20411;-71
2023/04/16 06:00:26;;;;;;;13.93;8.10;;;10.10;99.90;;;;;;5055053;28;20412;-70
2023/04/16 06:02:51;;;;;;;12.00;8.10;;;10.10;99.90;;;;;;5054907;28;20159;-69
2023/04/16 06:05:17;;;;;;;16.17;8.53;;;10.10;99.90;;;;;;5054650;28;20421;-69
2023/04/16 06:07:42;;;;;;;13.60;8.47;;;10.20;99.90;;;;;;5048025;28;20170;-70
2023/04/16 06:10:08;;;;;;;20.40;9.10;;;10.20;99.90;;;;;;5034791;28;20167;-69
2023/04/16 06:12:34;;;;;;;18.03;8.50;;;10.20;99.90;;;;;;5034512;28;20680;-70
2023/04/16 06:15:00;;;;;;;13.10;7.97;;;10.20;99.90;;;;;;5034325;28;20437;-69
2023/04/16 06:17:25;;;;;;;18.03;8.97;;;10.20;99.90;;;;;;5034393;28;20698;-70
2023/04/16 06:19:51;;;;;;;8.53;6.53;;;10.20;99.90;;;;;;5034592;28;20394;-71
2023/04/16 06:22:17;;;;;;;17.37;8.30;;;10.20;99.90;;;;;;5034392;28;20194;-70
2023/04/16 06:24:42;;;;;;;20.80;10.10;;;10.20;99.90;;;;;;5033670;28;20218;-70
2023/04/16 06:27:08;;;;;;;18.53;9.97;;;10.30;99.90;;;;;;5034118;28;20179;-71
2023/04/16 06:29:33;;;;;;;17.53;10.17;;;10.30;99.90;;;;;;5034335;28;20656;-71
2023/04/16 06:31:59;;;;;;;19.73;9.93;;;10.30;99.90;;;;;;5032073;28;20221;-70
2023/04/16 06:34:27;;;;;;;12.07;7.93;;;10.40;99.90;;;;;;5034497;28;20191;-70
2023/04/16 06:36:52;;;;;;;10.43;7.33;;;10.40;99.90;;;;;;5032820;28;20199;-71
2023/04/16 06:39:20;;;;;;;17.27;9.10;;;10.40;99.90;;;;;;5034208;28;20491;-70
2023/04/16 06:41:46;;;;;;;11.67;8.37;;;10.30;99.90;;;;;;5034147;28;20164;-69
2023/04/16 06:44:12;;;;;;;10.23;7.03;;;10.30;99.90;;;;;;5033998;28;20429;-69
2023/04/16 06:46:37;;;;;;;13.40;9.43;;;10.30;99.90;;;;;;5034149;28;20896;-70
2023/04/16 06:49:03;;;;;;;14.70;7.93;;;10.30;99.90;;;;;;5033723;28;20700;-70
2023/04/16 06:51:28;;;;;;;14.17;7.90;;;10.30;99.90;;;;;;5034160;28;20170;-69
2023/04/16 06:53:54;;;;;;;15.93;8.70;;;10.40;99.90;;;;;;5034020;28;20164;-70
2023/04/16 06:56:19;;;;;;;16.50;8.60;;;10.40;99.90;;;;;;5033800;28;20318;-71
2023/04/16 06:58:45;;;;;;;15.30;8.70;;;10.40;99.90;;;;;;5032573;28;20178;-72
2023/04/16 07:01:11;;;;;;;17.30;7.87;;;10.40;99.90;;;;;;5033804;28;20559;-70
2023/04/16 07:03:36;;;;;;;15.50;9.77;;;10.40;99.90;;;;;;5033871;28;20506;-70
2023/04/16 07:06:02;;;;;;;14.90;10.43;;;10.40;99.90;;;;;;5033406;28;20533;-70
2023/04/16 07:08:27;;;;;;;14.30;7.40;;;10.40;99.90;;;;;;5033516;28;20164;-70
2023/04/16 07:10:53;;;;;;;14.97;8.50;;;10.40;99.90;;;;;;5033441;28;20254;-70
2023/04/16 07:13:19;;;;;;;11.50;7.17;;;10.40;99.90;;;;;;5033462;28;20599;-70
2023/04/16 07:15:45;;;;;;;12.23;7.83;;;10.40;99.90;;;;;;5032199;28;20685;-70
2023/04/16 07:18:10;;;;;;;15.67;7.93;;;10.40;99.90;;;;;;5031860;28;20413;-70
2023/04/16 07:20:36;;;;;;;11.70;7.90;;;10.40;99.90;;;;;;5033653;28;20168;-70
2023/04/16 07:23:01;;;;;;;11.07;8.07;;;10.30;99.90;;;;;;5033429;28;20170;-70
2023/04/16 07:25:27;;;;;;;12.43;7.03;;;10.30;99.90;;;;;;5033282;28;20186;-72
2023/04/16 07:27:52;;;;;;;9.40;7.30;;;10.30;99.90;;;;;;5033120;28;20531;-70
2023/04/16 07:30:18;;;;;;;13.07;7.40;;;10.40;99.90;;;;;;5032973;28;20167;-70
2023/04/16 07:32:44;;;;;;;10.93;8.03;;;10.40;99.90;;;;;;5033286;28;20168;-69
2023/04/16 07:35:09;;;;;;;16.50;8.67;;;10.40;99.90;;;;;;5033057;28;20199;-69
2023/04/16 07:37:35;;;;;;;13.10;8.10;;;10.40;99.90;;;;;;5032855;28;20206;-69
2023/04/16 07:40:00;;;;;;;13.73;8.43;;;10.40;99.90;;;;;;5033264;28;20247;-71
2023/04/16 07:42:27;;;;;;;12.53;7.50;;;10.40;99.90;;;;;;5033056;28;20528;-71
2023/04/16 07:44:53;;;;;;;11.70;6.90;;;10.50;99.90;;;;;;5032919;28;20614;-70
2023/04/16 07:47:19;;;;;;;13.03;7.30;;;10.50;99.90;;;;;;5032730;28;20413;-71
2023/04/16 07:49:45;;;;;;;8.17;5.60;;;10.50;99.90;;;;;;5032867;28;20907;-70
2023/04/16 07:52:10;;;;;;;8.63;6.27;;;10.50;99.90;;;;;;5032858;28;20179;-71
2023/04/16 07:54:36;;;;;;;18.00;7.00;;;10.60;99.90;;;;;;5031328;28;20592;-70
2023/04/16 07:57:02;;;;;;;11.10;6.63;;;10.60;99.90;;;;;;5031080;28;20454;-70
2023/04/16 07:59:27;;;;;;;8.73;6.47;;;10.70;99.90;;;;;;5032809;28;20601;-71
2023/04/16 08:01:53;;;;;;;16.60;9.30;;;10.70;99.90;;;;;;5031392;28;20163;-71
2023/04/16 08:04:23;;;;;;;13.30;8.50;;;10.80;99.90;;;;;;5032695;28;20248;-70
2023/04/16 08:06:50;;;;;;;20.33;10.90;;;10.80;99.90;;;;;;5032591;28;20190;-70
2023/04/16 08:09:15;;;;;;;20.07;11.13;;;10.90;99.90;;;;;;5032204;28;20406;-70
2023/04/16 08:11:41;;;;;;;19.00;12.63;;;11.00;99.90;;;;;;5032626;28;20464;-72
2023/04/16 08:14:07;;;;;;;24.43;15.87;;;11.00;99.90;;;;;;5031127;28;20273;-70
2023/04/16 08:16:32;;;;;;;33.70;16.97;;;11.10;99.90;;;;;;5032409;28;20663;-71
2023/04/16 08:18:59;;;;;;;29.23;16.40;;;11.20;99.90;;;;;;5032306;28;20164;-70
2023/04/16 08:21:26;;;;;;;31.00;18.03;;;11.30;99.90;;;;;;5032123;28;20167;-69
2023/04/16 08:23:52;;;;;;;30.23;17.60;;;11.30;99.90;;;;;;5032216;28;20763;-71
2023/04/16 08:26:18;;;;;;;29.53;18.00;;;11.50;99.90;;;;;;5032249;28;20930;-70
2023/04/16 08:28:43;;;;;;;29.27;17.23;;;11.60;99.90;;;;;;5032129;28;20408;-71
2023/04/16 08:31:09;;;;;;;43.10;19.43;;;11.60;99.90;;;;;;5032327;28;20172;-70
2023/04/16 08:33:35;;;;;;;27.07;17.30;;;11.70;99.90;;;;;;5032155;28;20676;-71
2023/04/16 08:36:00;;;;;;;37.33;16.60;;;11.70;99.90;;;;;;5032107;28;20642;-71
2023/04/16 08:38:26;;;;;;;27.90;17.67;;;11.80;99.90;;;;;;5031825;28;20164;-71
2023/04/16 08:40:53;;;;;;;31.83;20.40;;;11.80;99.90;;;;;;5030848;28;20515;-71
2023/04/16 08:43:22;;;;;;;38.43;22.30;;;11.80;99.90;;;;;;5032123;28;20159;-71
2023/04/16 08:45:48;;;;;;;36.03;20.67;;;11.80;99.90;;;;;;5032020;28;20418;-71
2023/04/16 08:48:14;;;;;;;42.37;23.17;;;11.70;99.90;;;;;;5031724;28;20402;-71
2023/04/16 08:50:40;;;;;;;43.10;23.90;;;11.70;99.90;;;;;;5032021;28;20164;-70
2023/04/16 08:53:10;;;;;;;43.63;23.37;;;11.80;99.90;;;;;;5032044;28;20402;-75
2023/04/16 08:55:41;;;;;;;37.53;22.07;;;11.90;99.90;;;;;;5032884;28;20986;-73
2023/04/16 08:58:19;;;;;;;35.07;19.67;;;12.20;99.90;;;;;;5035847;28;20390;-71
2023/04/16 09:00:45;;;;;;;32.43;17.83;;;12.50;99.90;;;;;;5036115;28;20402;-71
2023/04/16 09:03:12;;;;;;;35.80;19.10;;;12.90;99.90;;;;;;5035941;28;20934;-71
2023/04/16 09:05:38;;;;;;;25.57;17.20;;;13.20;99.90;;;;;;5034637;28;20422;-71
2023/04/16 09:08:05;;;;;;;36.70;20.20;;;13.60;99.90;;;;;;5035680;28;20753;-71
2023/04/16 09:10:31;;;;;;;26.87;18.30;;;13.90;99.90;;;;;;5034577;28;20444;-71
2023/04/16 09:12:57;;;;;;;35.30;19.00;;;14.30;99.90;;;;;;5035623;28;20851;-71
2023/04/16 09:15:27;;;;;;;30.87;17.97;;;14.60;99.90;;;;;;5035651;28;20437;-71
2023/04/16 09:17:53;;;;;;;29.20;17.40;;;14.80;99.90;;;;;;5035193;28;20403;-71
2023/04/16 09:20:19;;;;;;;29.40;18.50;;;15.00;99.90;;;;;;5034246;28;20445;-71
2023/04/16 09:22:45;;;;;;;33.40;19.73;;;15.20;99.90;;;;;;5035769;28;20394;-71
2023/04/16 09:25:11;;;;;;;26.30;17.63;;;15.40;99.90;;;;;;5035764;28;20483;-71
2023/04/16 09:27:37;;;;;;;31.47;20.00;;;15.50;99.90;;;;;;5035104;28;20959;-71
2023/04/16 09:30:21;;;;;;;26.47;18.07;;;15.40;99.90;;;;;;5035631;28;20489;-71
2023/04/16 09:32:48;;;;;;;23.93;16.77;;;15.40;99.90;;;;;;5035234;28;20493;-71
2023/04/16 09:35:14;;;;;;;19.77;13.87;;;15.30;99.90;;;;;;5035525;28;20426;-71
2023/04/16 09:37:40;;;;;;;21.33;13.80;;;15.10;99.90;;;;;;5033792;28;20830;-71
2023/04/16 09:40:06;;;;;;;18.50;13.37;;;15.00;99.90;;;;;;5035340;28;20405;-71
2023/04/16 09:42:35;;;;;;;17.67;11.47;;;15.00;99.90;;;;;;5034978;28;20167;-71
2023/04/16 09:45:01;;;;;;;20.20;14.87;;;15.10;99.90;;;;;;5033911;28;20476;-72
2023/04/16 09:47:39;;;;;;;18.20;11.40;;;15.30;99.90;;;;;;5034973;28;20764;-71
2023/04/16 09:50:06;;;;;;;21.47;12.67;;;15.40;99.90;;;;;;5035356;28;20408;-71
2023/04/16 09:52:35;;;;;;;17.43;12.77;;;15.40;99.90;;;;;;5035123;28;20485;-71
2023/04/16 09:55:01;;;;;;;18.73;13.30;;;15.60;99.90;;;;;;5035045;28;20468;-71
2023/04/16 09:57:28;;;;;;;19.87;15.30;;;15.60;99.90;;;;;;5034614;28;20461;-71
2023/04/16 10:00:00;;;;;;;16.80;14.40;;;15.60;99.90;;;;;;5035041;28;20160;-71
2023/04/16 10:02:27;;;;;;;24.50;15.27;;;15.60;99.90;;;;;;5044125;28;20463;-71
2023/04/16 10:04:53;;;;;;;22.00;15.10;;;15.60;99.90;;;;;;5055141;28;20428;-70
2023/04/16 10:07:19;;;;;;;17.00;12.77;;;15.90;99.90;;;;;;5055142;28;20402;-71
2023/04/16 10:09:49;;;;;;;20.13;14.73;;;16.20;99.90;;;;;;5055039;28;20416;-70
2023/04/16 10:12:15;;;;;;;20.73;15.03;;;16.30;99.90;;;;;;5053209;28;20486;-71
2023/04/16 10:14:44;;;;;;;23.90;16.37;;;16.30;99.90;;;;;;5054463;28;20436;-70
2023/04/16 10:17:10;;;;;;;27.13;16.97;;;16.30;99.90;;;;;;5054412;28;20453;-71
2023/04/16 10:19:36;;;;;;;23.23;14.80;;;16.20;99.90;;;;;;5054632;28;20773;-70
2023/04/16 10:22:02;;;;;;;20.30;15.20;;;16.20;99.90;;;;;;5054644;28;20394;-70
2023/04/16 10:24:32;;;;;;;16.50;13.23;;;16.10;99.90;;;;;;5054384;28;20179;-70
2023/04/16 10:26:58;;;;;;;23.87;13.70;;;16.00;99.90;;;;;;5053206;28;20174;-70
2023/04/16 10:29:26;;;;;;;15.53;12.03;;;15.90;99.90;;;;;;5055793;28;20822;-70
2023/04/16 10:31:53;;;;;;;18.30;12.73;;;15.90;99.90;;;;;;5055519;28;20401;-70
2023/04/16 10:34:20;;;;;;;17.63;13.70;;;15.80;99.90;;;;;;5055234;28;20460;-70
2023/04/16 10:36:53;;;;;;;20.80;13.23;;;15.70;99.90;;;;;;5054867;28;20499;-70
2023/04/16 10:39:22;;;;;;;22.13;15.60;;;15.70;99.90;;;;;;5054917;28;20496;-69
2023/04/16 10:41:48;;;;;;;17.83;12.87;;;15.60;99.90;;;;;;5054694;28;20500;-69
2023/04/16 10:44:17;;;;;;;19.00;13.83;;;15.70;99.90;;;;;;5056034;28;20413;-70
2023/04/16 10:46:49;;;;;;;20.83;14.77;;;15.80;99.90;;;;;;5054099;28;20745;-69
2023/04/16 10:49:22;;;;;;;22.60;15.50;;;16.00;99.90;;;;;;5053826;28;20471;-70
2023/04/16 10:51:57;;;;;;;19.40;14.10;;;16.10;99.90;;;;;;5053483;28;20414;-70
2023/04/16 10:54:25;;;;;;;21.00;15.70;;;16.10;99.90;;;;;;5053017;28;20429;-71
2023/04/16 10:56:51;;;;;;;21.60;16.90;;;16.10;99.90;;;;;;5053534;28;20471;-71
2023/04/16 10:59:19;;;;;;;24.33;16.00;;;16.00;99.90;;;;;;5053808;28;20401;-71
2023/04/16 11:01:57;;;;;;;15.60;12.70;;;15.90;99.90;;;;;;5053518;28;20511;-71
2023/04/16 11:04:27;;;;;;;18.93;14.40;;;15.80;99.90;;;;;;5053656;28;20424;-71
2023/04/16 11:07:17;;;;;;;24.03;15.13;;;15.60;99.90;;;;;;5053307;28;20401;-70
2023/04/16 11:09:58;;;;;;;22.80;14.40;;;15.50;99.90;;;;;;5053572;28;20401;-70
2023/04/16 11:12:41;;;;;;;21.53;13.73;;;15.50;99.90;;;;;;5053352;28;20421;-70
2023/04/16 11:15:07;;;;;;;19.03;13.40;;;15.70;99.90;;;;;;5052313;28;20433;-70
2023/04/16 11:17:44;;;;;;;21.97;13.63;;;15.90;99.90;;;;;;5052645;28;20502;-70
2023/04/16 11:20:17;;;;;;;17.33;13.20;;;16.20;99.90;;;;;;5053204;28;20425;-71
2023/04/16 11:22:44;;;;;;;19.53;13.00;;;16.40;99.90;;;;;;5053331;28;20430;-71
2023/04/16 11:25:10;;;;;;;20.10;14.00;;;16.70;99.90;;;;;;5051875;28;20769;-70
2023/04/16 11:27:36;;;;;;;21.27;14.60;;;17.00;99.90;;;;;;5053063;28;21168;-71
2023/04/16 11:30:04;;;;;;;20.07;12.77;;;17.60;99.90;;;;;;5053316;28;20401;-71
2023/04/16 11:32:34;;;;;;;15.00;12.60;;;18.30;99.90;;;;;;5051770;28;20178;-71
2023/04/16 11:35:03;;;;;;;19.77;14.30;;;18.90;99.90;;;;;;5053112;28;20431;-71
2023/04/16 11:37:33;;;;;;;15.57;12.97;;;19.30;99.90;;;;;;5052599;28;20534;-72
2023/04/16 11:39:59;;;;;;;18.77;14.83;;;19.40;99.90;;;;;;5052996;28;20397;-71
2023/04/16 11:42:26;;;;;;;24.30;14.23;;;19.30;99.90;;;;;;5053361;28;20934;-71
2023/04/16 11:44:53;;;;;;;14.57;12.57;;;19.10;99.90;;;;;;5052934;28;20520;-71
2023/04/16 11:47:18;;;;;;;16.50;12.60;;;18.70;99.90;;;;;;5052259;28;20409;-71
2023/04/16 11:49:44;;;;;;;16.23;13.10;;;18.20;99.90;;;;;;5052901;28;20898;-71
2023/04/16 11:52:10;;;;;;;19.60;12.63;;;17.80;99.90;;;;;;5051547;28;20175;-71
2023/04/16 11:54:36;;;;;;;20.80;12.73;;;17.50;99.90;;;;;;5052647;28;20187;-71
2023/04/16 11:57:05;;;;;;;18.37;14.80;;;17.30;99.90;;;;;;5052536;28;20194;-71
2023/04/16 11:59:32;;;;;;;18.67;13.37;;;17.10;99.90;;;;;;5052706;28;20394;-70
2023/04/16 12:01:57;;;;;;;18.43;13.60;;;16.90;99.90;;;;;;5052680;28;20401;-70
2023/04/16 12:04:24;;;;;;;18.90;13.57;;;16.70;99.90;;;;;;5052555;28;20425;-71
2023/04/16 12:07:12;;;;;;;18.93;12.50;;;16.60;99.90;;;;;;5052584;28;20174;-71
2023/04/16 12:09:40;;;;;;;17.27;12.90;;;16.50;99.90;;;;;;5052538;28;20555;-71
2023/04/16 12:12:06;;;;;;;21.73;14.50;;;16.70;99.90;;;;;;5052413;28;20417;-71
2023/04/16 12:14:31;;;;;;;16.20;12.77;;;17.10;99.90;;;;;;5052280;28;20482;-70
2023/04/16 12:17:19;;;;;;;16.80;13.60;;;17.30;99.90;;;;;;5052061;28;20453;-70
2023/04/16 12:19:55;;;;;;;14.90;12.30;;;17.70;99.90;;;;;;5051010;28;20178;-71
2023/04/16 12:22:33;;;;;;;16.83;12.70;;;18.00;99.90;;;;;;5052566;28;20408;-70
2023/04/16 12:25:04;;;;;;;15.70;13.87;;;18.00;99.90;;;;;;5051014;28;20417;-71
2023/04/16 12:27:50;;;;;;;14.70;12.83;;;18.00;99.90;;;;;;5051770;28;20428;-71
2023/04/16 12:30:17;;;;;;;22.73;15.23;;;18.00;99.90;;;;;;5051466;28;20416;-71
2023/04/16 12:32:45;;;;;;;15.10;12.90;;;18.20;99.90;;;;;;5052213;28;20496;-71
2023/04/16 12:35:11;;;;;;;11.03;9.90;;;19.20;99.90;;;;;;5052048;28;20432;-71
2023/04/16 12:37:38;;;;;;;15.67;12.10;;;22.70;99.90;;;;;;5051970;28;20461;-71